메인 페이지
METAR-TAF:

METAR-TAF

공항 :

클린턴 / Burns Flat, 오클라호마, 미국

위도: 35-21-24N, 경도: 099-12-13W, 고도: 585m

현재 날씨관측

예보는 54분 전, 04:53시(UTC)에 발표되었습니다.
남동18kt
온도 22°C
습도 83%
기압 1008 hPa
시정: 16.1km
맑음

METAR: KCSM 250453Z AUTO 13018KT 10SM CLR 22/19 A2977 RMK AO2 PK WND 13026/0356 SLP060 T02220189

시각: 00:47 (05:47 UTC)

예보

예보는 8분 전, 05:39시(UTC)에 발표되었습니다.
예보 대상 시간: 25일 06시부터 26일 06시까지 (UTC)
북북서15kt, 순간 최대 풍속 25kt
시정: 10km
고도 5000ft 상공 구름 많음
고도 15000ft 상공 구름 많음
일시적
25일 06시부터 25일 09시까지 (UTC)
북북서25kt, 순간 최대 풍속 45kt
시정: 3.2km
고도 3500ft 상공 흐림, 적란운.
뇌우, 비
25일 1000시부터 (UTC)
북북동12kt
시정: 10km
고도 4000ft 상공 구름 많음
고도 8000ft 상공 흐림
25일 1200시부터 (UTC)
남동14kt, 순간 최대 풍속 25kt
시정: 10km
고도 9000ft 상공 구름 많음
25일 1900시부터 (UTC)
서남서8kt
시정: 10km
고도 25000ft 상공 구름 보통

TAF: KCSM 250539Z 2506/2606 34015G25KT P6SM BKN050 BKN150 TEMPO 2506/2509 34025G45KT 2SM TSRA OVC035CB FM251000 02012KT P6SM BKN040 OVC080 FM251200 13014G25KT P6SM BKN090 FM251900 24008KT P6SM SCT250

4,000개 이상의 공항 관측 자료 및 예보 (METAR 및 TAF 보고).

지도상에서 검색 가능한 기상관측소가 노란 점과 빨간 점으로 표시되어 있습니다.

기상관측소 명을 보려면 표시 위로 마우스를 이동하세요.

날씨 관측과 예보를 보려면 클릭하세요.

지도 변경 : 확대하려면 엑스 표시가 있는 녹색 버튼, 축소하려면 빼기 표시가 있는 녹색 버튼, 다음 페이지의 지도를 보려면 녹색 화살표를 클릭하세요.


METAR-TAF: